F/V Le Natif 2 — FKVW — position and weather

sailwx.info

Track history (hours):
 
Tides and Currents Weather Stations Pressure Air Temp Water Temp Dewpoint Dewpoint Depression Visibility Wind Speed Wind Dir Waves Ship Positions

F/V Le Natif 2

Last reported at 2015-Jan-29 11:33 UTC. Time now 2015-Jan-30 23:26 UTC.
Position N 46°42' W 001°57'.

Length 16 m.

Type: Fishing. MMSI: 228131600.

Date/timePositionNaut miles runAvg speedWind from/ knotsBaromVisibWave heightAir tempDewpointWater temp
2015-Jan-29 11:33N 46°42' W 001°57'4 4.2
2015-Jan-29 10:33N 46°38' W 001°58'7 7.4
2015-Jan-29 09:33N 46°30' W 001°57'7 7.3
2015-Jan-29 08:33N 46°23' W 001°56'7 7.5
2015-Jan-29 07:33N 46°16' W 001°54'8 7.5
2015-Jan-29 06:30N 46°08' W 001°54'87 7.3
2015-Jan-28 18:29N 44°41' W 001°44'7 7.3
2015-Jan-28 17:33N 44°34' W 001°43'10 7.8
2015-Jan-28 16:14N 44°24' W 001°42'36 2.2
2015-Jan-27 23:28N 43°47' W 001°39'3 3.5
2015-Jan-27 22:30N 43°51' W 001°38'12 0.8
2015-Jan-27 08:28N 43°39' W 001°39'8 8.3
2015-Jan-27 07:33N 43°31' W 001°40'8 7.9
2015-Jan-27 06:33N 43°24' W 001°40'1 0.5
2015-Jan-27 05:33N 43°23' W 001°40'7 7.4
2015-Jan-27 04:33N 43°31' W 001°39'13 1.1
2015-Jan-26 17:25N 43°42' W 001°31'6 1.0
2015-Jan-26 11:11N 43°39' W 001°39'5 8.7
2015-Jan-26 10:33N 43°34' W 001°40'8 8.4
2015-Jan-26 09:33N 43°26' W 001°41'2 2.5
2015-Jan-26 08:33N 43°23' W 001°40'5 4.7
2015-Jan-26 07:33N 43°28' W 001°39'9 9.3
2015-Jan-26 06:33N 43°36' W 001°33'6 5.7
2015-Jan-26 05:33N 43°42' W 001°30'4 3.6
2015-Jan-26 04:33N 43°45' W 001°31'42 4.9
2015-Jan-25 20:06N 44°27' W 001°30'5 8.6
2015-Jan-25 19:33N 44°32' W 001°31'9 8.7
2015-Jan-25 18:33N 44°40' W 001°33'12 8.6
2015-Jan-25 17:07N 44°52' W 001°35'74 8.5
2015-Jan-25 08:25N 46°05' W 001°50'8 8.9
2015-Jan-25 07:33N 46°13' W 001°52'9 8.8
2015-Jan-25 06:33N 46°22' W 001°54'9 8.7
2015-Jan-25 05:33N 46°30' W 001°55'9 8.9
2015-Jan-25 04:33N 46°39' W 001°57'3 2.6
2015-Jan-25 03:33N 46°42' W 001°57'0 0.0
2015-Jan-23 09:19N 46°42' W 001°57'0 0.0
2015-Jan-22 08:33N 46°42' W 001°57'0 0.0
2015-Jan-22 07:33N 46°42' W 001°57'0 0.0
2015-Jan-22 06:33N 46°42' W 001°57'0 0.0
2015-Jan-22 05:33N 46°42' W 001°57'0 0.0
2015-Jan-22 04:33N 46°42' W 001°57'0 0.0
2015-Jan-22 03:33N 46°42' W 001°57'0 0.1
2015-Jan-22 02:33N 46°42' W 001°56'3 3.4
2015-Jan-22 01:33N 46°39' W 001°60'0 0.3
2015-Jan-22 00:33N 46°39' W 001°59'0 0.3
2015-Jan-21 23:33N 46°40' W 001°59'2 2.5
2015-Jan-21 22:50N 46°38' W 002°00'0 5.5
2015-Jan-21 22:46N 46°37' W 002°00'1 5.3
2015-Jan-21 22:33N 46°36' W 002°01'5 5.1
2015-Jan-21 21:33N 46°32' W 002°04'5 4.7
2015-Jan-21 20:33N 46°28' W 002°07'4 4.4
2015-Jan-21 19:33N 46°24' W 002°09'5 4.5
2015-Jan-21 18:32N 46°19' W 002°12'7 1.5
2015-Jan-21 14:08N 46°15' W 002°19'4 0.1
2015-Jan-20 07:33N 46°19' W 002°16'12 1.0
2015-Jan-19 19:33N 46°30' W 002°11'9 8.9
2015-Jan-19 18:33N 46°36' W 002°03'7 6.8
2015-Jan-19 17:33N 46°42' W 001°57'0 0.0
2015-Jan-19 16:33N 46°42' W 001°57'2 1.8
2015-Jan-19 15:33N 46°40' W 001°58'9 8.8
2015-Jan-19 14:33N 46°35' W 002°08'9 8.9
2015-Jan-19 13:33N 46°29' W 002°18'  
Track history (hours):
 
Tides and Currents Weather Stations Pressure Air Temp Water Temp Dewpoint Dewpoint Depression Visibility Wind Speed Wind Dir Waves Ship Positions

F/V Le Natif 2

Last reported at 2015-Jan-29 11:33 UTC. Time now 2015-Jan-30 23:26 UTC.
Position N 46°42' W 001°57'.

Length 16 m.

Type: Fishing. MMSI: 228131600.

Date/timePositionNaut miles runAvg speedWind from/ knotsBaromVisibWave heightAir tempDewpointWater temp
2015-Jan-29 11:33N 46°42' W 001°57'4 4.2
2015-Jan-29 10:33N 46°38' W 001°58'7 7.4
2015-Jan-29 09:33N 46°30' W 001°57'7 7.3
2015-Jan-29 08:33N 46°23' W 001°56'7 7.5
2015-Jan-29 07:33N 46°16' W 001°54'8 7.5
2015-Jan-29 06:30N 46°08' W 001°54'87 7.3
2015-Jan-28 18:29N 44°41' W 001°44'7 7.3
2015-Jan-28 17:33N 44°34' W 001°43'10 7.8
2015-Jan-28 16:14N 44°24' W 001°42'36 2.2
2015-Jan-27 23:28N 43°47' W 001°39'3 3.5
2015-Jan-27 22:30N 43°51' W 001°38'12 0.8
2015-Jan-27 08:28N 43°39' W 001°39'8 8.3
2015-Jan-27 07:33N 43°31' W 001°40'8 7.9
2015-Jan-27 06:33N 43°24' W 001°40'1 0.5
2015-Jan-27 05:33N 43°23' W 001°40'7 7.4
2015-Jan-27 04:33N 43°31' W 001°39'13 1.1
2015-Jan-26 17:25N 43°42' W 001°31'6 1.0
2015-Jan-26 11:11N 43°39' W 001°39'5 8.7
2015-Jan-26 10:33N 43°34' W 001°40'8 8.4
2015-Jan-26 09:33N 43°26' W 001°41'2 2.5
2015-Jan-26 08:33N 43°23' W 001°40'5 4.7
2015-Jan-26 07:33N 43°28' W 001°39'9 9.3
2015-Jan-26 06:33N 43°36' W 001°33'6 5.7
2015-Jan-26 05:33N 43°42' W 001°30'4 3.6
2015-Jan-26 04:33N 43°45' W 001°31'42 4.9
2015-Jan-25 20:06N 44°27' W 001°30'5 8.6
2015-Jan-25 19:33N 44°32' W 001°31'9 8.7
2015-Jan-25 18:33N 44°40' W 001°33'12 8.6
2015-Jan-25 17:07N 44°52' W 001°35'74 8.5
2015-Jan-25 08:25N 46°05' W 001°50'8 8.9
2015-Jan-25 07:33N 46°13' W 001°52'9 8.8
2015-Jan-25 06:33N 46°22' W 001°54'9 8.7
2015-Jan-25 05:33N 46°30' W 001°55'9 8.9
2015-Jan-25 04:33N 46°39' W 001°57'3 2.6
2015-Jan-25 03:33N 46°42' W 001°57'0 0.0
2015-Jan-23 09:19N 46°42' W 001°57'0 0.0
2015-Jan-22 08:33N 46°42' W 001°57'0 0.0
2015-Jan-22 07:33N 46°42' W 001°57'0 0.0
2015-Jan-22 06:33N 46°42' W 001°57'0 0.0
2015-Jan-22 05:33N 46°42' W 001°57'0 0.0
2015-Jan-22 04:33N 46°42' W 001°57'0 0.0
2015-Jan-22 03:33N 46°42' W 001°57'0 0.1
2015-Jan-22 02:33N 46°42' W 001°56'3 3.4
2015-Jan-22 01:33N 46°39' W 001°60'0 0.3
2015-Jan-22 00:33N 46°39' W 001°59'0 0.3
2015-Jan-21 23:33N 46°40' W 001°59'2 2.5
2015-Jan-21 22:50N 46°38' W 002°00'0 5.5
2015-Jan-21 22:46N 46°37' W 002°00'1 5.3
2015-Jan-21 22:33N 46°36' W 002°01'5 5.1
2015-Jan-21 21:33N 46°32' W 002°04'5 4.7
2015-Jan-21 20:33N 46°28' W 002°07'4 4.4
2015-Jan-21 19:33N 46°24' W 002°09'5 4.5
2015-Jan-21 18:32N 46°19' W 002°12'7 1.5
2015-Jan-21 14:08N 46°15' W 002°19'4 0.1
2015-Jan-20 07:33N 46°19' W 002°16'12 1.0
2015-Jan-19 19:33N 46°30' W 002°11'9 8.9
2015-Jan-19 18:33N 46°36' W 002°03'7 6.8
2015-Jan-19 17:33N 46°42' W 001°57'0 0.0
2015-Jan-19 16:33N 46°42' W 001°57'2 1.8
2015-Jan-19 15:33N 46°40' W 001°58'9 8.8
2015-Jan-19 14:33N 46°35' W 002°08'9 8.9
2015-Jan-19 13:33N 46°29' W 002°18'  

Dump ship's entire track history